Time;durP1;ratioP1;P1;durP2;ratioP2;P2;SDS_P1;SDS_P2;PMS_P1;PMS_P2;Temp;Humidity;BMP_temperature;BMP_pressure;BME280_temperature;BME280_humidity;BME280_pressure;Samples;Min_cycle;Max_cycle;Signal;HPM_P1;HPM_P2
2022/07/17 00:00:20;;;;;;;7.05;2.63;;;;;;;;;;5029777;27;97467;-74
2022/07/17 00:02:47;;;;;;;5.68;2.10;;;;;;;;;;5035020;28;95270;-74
2022/07/17 00:05:14;;;;;;;8.77;2.30;;;;;;;;;;5027007;27;97355;-74
2022/07/17 00:07:41;;;;;;;5.00;2.38;;;;;;;;;;5030268;28;95444;-74
2022/07/17 00:10:07;;;;;;;5.40;2.30;;;;;;;;;;5041563;27;97006;-73
2022/07/17 00:12:34;;;;;;;18.50;2.90;;;;;;;;;;5031338;28;97395;-74
2022/07/17 00:15:00;;;;;;;6.15;2.38;;;;;;;;;;5028536;27;97072;-74
2022/07/17 00:17:27;;;;;;;13.13;3.10;;;;;;;;;;5028048;27;96935;-74
2022/07/17 00:19:53;;;;;;;10.15;2.80;;;;;;;;;;5028980;28;96121;-74
2022/07/17 00:22:20;;;;;;;9.88;2.42;;;;;;;;;;5031484;28;95322;-74
2022/07/17 00:24:47;;;;;;;6.03;2.47;;;;;;;;;;5032301;27;96690;-74
2022/07/17 00:27:14;;;;;;;11.90;2.72;;;;;;;;;;5030051;28;95286;-74
2022/07/17 00:29:40;;;;;;;12.07;3.38;;;;;;;;;;5034522;27;95373;-74
2022/07/17 00:32:07;;;;;;;9.80;2.83;;;;;;;;;;5033981;27;97663;-74
2022/07/17 00:34:33;;;;;;;11.68;2.47;;;;;;;;;;5034556;28;95363;-74
2022/07/17 00:37:00;;;;;;;5.90;2.47;;;;;;;;;;5034383;27;96202;-74
2022/07/17 00:39:26;;;;;;;9.07;2.83;;;;;;;;;;5033676;27;97262;-74
2022/07/17 00:41:52;;;;;;;5.30;2.30;;;;;;;;;;5048265;27;95318;-74
2022/07/17 00:44:19;;;;;;;8.82;2.72;;;;;;;;;;5034396;28;96694;-73
2022/07/17 00:46:45;;;;;;;9.40;2.70;;;;;;;;;;5033033;27;97363;-74
2022/07/17 00:49:12;;;;;;;5.07;2.75;;;;;;;;;;5034473;28;95552;-74
2022/07/17 00:51:38;;;;;;;8.25;2.83;;;;;;;;;;5049669;27;96301;-74
2022/07/17 00:54:05;;;;;;;8.00;2.88;;;;;;;;;;5054591;27;95340;-74
2022/07/17 00:56:36;;;;;;;8.23;3.03;;;;;;;;;;5038110;27;96748;-74
2022/07/17 00:59:02;;;;;;;11.38;3.17;;;;;;;;;;5034468;28;97254;-74
2022/07/17 01:01:30;;;;;;;6.13;2.70;;;;;;;;;;5028136;27;95561;-74
2022/07/17 01:03:57;;;;;;;6.18;2.75;;;;;;;;;;5034417;27;97090;-75
2022/07/17 01:06:24;;;;;;;5.70;2.70;;;;;;;;;;5032853;27;97606;-74
2022/07/17 01:08:51;;;;;;;7.18;2.40;;;;;;;;;;5018832;28;97006;-74
2022/07/17 01:11:17;;;;;;;4.85;2.40;;;;;;;;;;5031617;27;97355;-74
2022/07/17 01:13:43;;;;;;;8.75;2.55;;;;;;;;;;5030280;27;95229;-74
2022/07/17 01:16:10;;;;;;;7.30;2.90;;;;;;;;;;5031230;27;96733;-75
2022/07/17 01:18:37;;;;;;;5.40;2.67;;;;;;;;;;5033126;28;97317;-74
2022/07/17 01:21:05;;;;;;;3.60;2.50;;;;;;;;;;5037211;27;95472;-74
2022/07/17 01:23:31;;;;;;;5.88;2.40;;;;;;;;;;5043268;27;96782;-74
2022/07/17 01:25:57;;;;;;;6.85;2.40;;;;;;;;;;5032827;28;97664;-74
2022/07/17 01:28:24;;;;;;;7.75;2.63;;;;;;;;;;5033882;28;95270;-74
2022/07/17 01:30:51;;;;;;;6.60;2.80;;;;;;;;;;5034378;27;96827;-74
2022/07/17 01:33:18;;;;;;;12.73;2.75;;;;;;;;;;5051137;27;95713;-74
2022/07/17 01:35:44;;;;;;;5.05;2.50;;;;;;;;;;5034030;27;97097;-74
2022/07/17 01:38:11;;;;;;;8.68;2.47;;;;;;;;;;5032909;27;97386;-74
2022/07/17 01:40:37;;;;;;;9.82;2.47;;;;;;;;;;5032820;27;95361;-74
2022/07/17 01:43:03;;;;;;;5.57;2.58;;;;;;;;;;5031099;27;96872;-75
2022/07/17 01:45:30;;;;;;;7.35;2.50;;;;;;;;;;5033813;28;97310;-75
2022/07/17 01:47:56;;;;;;;4.75;2.42;;;;;;;;;;5031761;27;96840;-74
2022/07/17 01:50:23;;;;;;;5.25;2.35;;;;;;;;;;5032818;28;96971;-75
2022/07/17 01:52:49;;;;;;;6.40;2.53;;;;;;;;;;5046471;27;97206;-74
2022/07/17 01:55:15;;;;;;;7.65;2.53;;;;;;;;;;5032426;27;96903;-73
2022/07/17 01:57:42;;;;;;;4.72;2.40;;;;;;;;;;5033730;28;97511;-74
2022/07/17 02:00:11;;;;;;;7.10;2.53;;;;;;;;;;5034149;27;95328;-74
2022/07/17 02:02:37;;;;;;;4.95;2.40;;;;;;;;;;5029133;27;96778;-74
2022/07/17 02:05:04;;;;;;;3.75;2.13;;;;;;;;;;5032879;28;97473;-74
2022/07/17 02:07:31;;;;;;;9.07;2.65;;;;;;;;;;5033701;28;96162;-74
2022/07/17 02:09:57;;;;;;;5.85;2.17;;;;;;;;;;5030876;27;96860;-74
2022/07/17 02:12:23;;;;;;;5.72;2.10;;;;;;;;;;5036467;27;97419;-74
2022/07/17 02:14:50;;;;;;;8.65;2.33;;;;;;;;;;5032693;27;95718;-74
2022/07/17 02:17:16;;;;;;;5.90;2.13;;;;;;;;;;5032378;28;97517;-74
2022/07/17 02:19:43;;;;;;;5.32;2.45;;;;;;;;;;5032976;28;95552;-74
2022/07/17 02:22:09;;;;;;;8.98;2.50;;;;;;;;;;5031981;28;95590;-74
2022/07/17 02:24:36;;;;;;;5.53;2.35;;;;;;;;;;5031043;27;97323;-75
2022/07/17 02:27:02;;;;;;;7.95;2.30;;;;;;;;;;5031669;28;95300;-74
2022/07/17 02:29:29;;;;;;;8.25;3.47;;;;;;;;;;5033551;28;96782;-74
2022/07/17 02:31:55;;;;;;;9.20;2.20;;;;;;;;;;5030323;27;97237;-75
2022/07/17 02:34:21;;;;;;;4.43;2.20;;;;;;;;;;5033284;27;97014;-74
2022/07/17 02:36:48;;;;;;;4.45;2.10;;;;;;;;;;5033150;28;97516;-74
2022/07/17 02:39:14;;;;;;;4.00;1.95;;;;;;;;;;5032067;28;95284;-74
2022/07/17 02:41:40;;;;;;;5.20;2.15;;;;;;;;;;5030478;27;96821;-74
2022/07/17 02:44:07;;;;;;;6.20;2.70;;;;;;;;;;5032385;28;96544;-75
2022/07/17 02:46:33;;;;;;;8.65;2.20;;;;;;;;;;5032387;28;95235;-75
2022/07/17 02:48:59;;;;;;;3.47;2.13;;;;;;;;;;5031871;27;96784;-74
2022/07/17 02:51:26;;;;;;;3.40;2.00;;;;;;;;;;5030802;27;97901;-74
2022/07/17 02:53:52;;;;;;;7.07;1.92;;;;;;;;;;5045908;27;95102;-74
2022/07/17 02:56:19;;;;;;;4.75;2.03;;;;;;;;;;5035083;28;96085;-74
2022/07/17 02:58:45;;;;;;;7.35;2.17;;;;;;;;;;5033340;28;96303;-74
2022/07/17 03:01:11;;;;;;;8.52;2.25;;;;;;;;;;5030836;27;97197;-75
2022/07/17 03:03:38;;;;;;;14.43;2.40;;;;;;;;;;5031195;27;97316;-74
2022/07/17 03:06:04;;;;;;;6.15;2.20;;;;;;;;;;5029604;27;95153;-74
2022/07/17 03:08:31;;;;;;;4.78;2.10;;;;;;;;;;5031264;28;96977;-74
2022/07/17 03:10:57;;;;;;;2.97;1.92;;;;;;;;;;5031513;27;97273;-74
2022/07/17 03:13:23;;;;;;;6.65;2.00;;;;;;;;;;5044079;27;95315;-74
2022/07/17 03:15:50;;;;;;;11.40;2.28;;;;;;;;;;5052192;27;97094;-74
2022/07/17 03:18:16;;;;;;;4.38;2.03;;;;;;;;;;5046068;27;97317;-74
2022/07/17 03:20:42;;;;;;;3.28;1.88;;;;;;;;;;5029572;27;96912;-74
2022/07/17 03:23:09;;;;;;;6.20;1.92;;;;;;;;;;5031160;28;97288;-75
2022/07/17 03:25:36;;;;;;;6.07;1.95;;;;;;;;;;5032090;28;95440;-74
2022/07/17 03:28:02;;;;;;;3.75;2.10;;;;;;;;;;5032827;28;97003;-75
2022/07/17 03:30:29;;;;;;;6.07;2.17;;;;;;;;;;5029714;27;97332;-75
2022/07/17 03:32:55;;;;;;;6.15;1.90;;;;;;;;;;5032548;27;95448;-74
2022/07/17 03:35:21;;;;;;;5.28;2.08;;;;;;;;;;5050645;27;96820;-75
2022/07/17 03:37:47;;;;;;;5.68;2.00;;;;;;;;;;5032093;28;97406;-74
2022/07/17 03:40:14;;;;;;;3.63;2.03;;;;;;;;;;5035082;27;95348;-74
2022/07/17 03:42:41;;;;;;;2.92;1.80;;;;;;;;;;5029961;27;97461;-77
2022/07/17 19:58:34;;;;;;;9.63;4.25;;;;;;;;;;5027597;28;97305;-76
2022/07/17 20:01:01;;;;;;;14.25;4.45;;;;;;;;;;5028239;28;95367;-75
2022/07/17 20:03:28;;;;;;;11.85;4.65;;;;;;;;;;5019588;27;97098;-76
2022/07/17 20:05:54;;;;;;;9.02;4.40;;;;;;;;;;5005343;27;97814;-76
2022/07/17 20:08:24;;;;;;;8.82;4.45;;;;;;;;;;5009082;27;95520;-74
2022/07/17 20:10:51;;;;;;;10.93;4.40;;;;;;;;;;5014376;27;96832;-75
2022/07/17 20:13:17;;;;;;;10.13;4.57;;;;;;;;;;5005003;27;97701;-74
2022/07/17 20:15:44;;;;;;;8.00;4.40;;;;;;;;;;5031754;27;95784;-75
2022/07/17 20:18:11;;;;;;;11.68;4.90;;;;;;;;;;5026833;27;97290;-75
2022/07/17 20:20:38;;;;;;;10.73;4.72;;;;;;;;;;5021849;27;95394;-75
2022/07/17 20:23:05;;;;;;;9.52;4.68;;;;;;;;;;5026785;28;97498;-75
2022/07/17 20:25:32;;;;;;;7.75;4.32;;;;;;;;;;5017301;27;98196;-74
2022/07/17 20:27:58;;;;;;;10.35;4.50;;;;;;;;;;5020081;28;95272;-75
2022/07/17 20:30:25;;;;;;;10.75;4.55;;;;;;;;;;5008344;27;97325;-76
2022/07/17 20:32:51;;;;;;;12.65;4.85;;;;;;;;;;5007821;28;97378;-75
2022/07/17 20:35:18;;;;;;;14.85;4.47;;;;;;;;;;5045942;27;96933;-75
2022/07/17 20:37:44;;;;;;;16.70;4.78;;;;;;;;;;5031252;28;96814;-74
2022/07/17 20:40:11;;;;;;;8.40;4.60;;;;;;;;;;5013800;27;95674;-75
2022/07/17 20:42:38;;;;;;;12.70;4.32;;;;;;;;;;5009629;27;97019;-74
2022/07/17 20:45:06;;;;;;;10.13;4.78;;;;;;;;;;5023914;27;98721;-73
2022/07/17 20:47:33;;;;;;;8.55;4.50;;;;;;;;;;5012940;27;95368;-74
2022/07/17 20:50:07;;;;;;;8.48;4.95;;;;;;;;;;5008630;27;96366;-74
2022/07/17 20:52:36;;;;;;;11.20;5.03;;;;;;;;;;5006623;28;97298;-73
2022/07/17 20:55:03;;;;;;;8.40;4.50;;;;;;;;;;5008414;27;96436;-73
2022/07/17 20:57:30;;;;;;;8.95;4.65;;;;;;;;;;5018613;27;97215;-74
2022/07/17 21:00:09;;;;;;;13.73;6.43;;;;;;;;;;5030439;27;95963;-73
2022/07/17 21:02:36;;;;;;;14.35;5.15;;;;;;;;;;5024270;27;97358;-74
2022/07/17 21:05:03;;;;;;;12.02;4.80;;;;;;;;;;5024118;27;97514;-74
2022/07/17 21:07:32;;;;;;;13.23;5.22;;;;;;;;;;4995313;28;95647;-75
2022/07/17 21:09:59;;;;;;;9.40;4.40;;;;;;;;;;5004625;28;96728;-72
2022/07/17 21:12:25;;;;;;;14.75;4.65;;;;;;;;;;5005703;28;96110;-75
2022/07/17 21:14:52;;;;;;;7.65;4.80;;;;;;;;;;5012875;28;95417;-75
2022/07/17 21:17:19;;;;;;;14.43;5.07;;;;;;;;;;5008386;28;96722;-74
2022/07/17 21:19:45;;;;;;;15.20;5.80;;;;;;;;;;5011066;28;97044;-74
2022/07/17 21:22:12;;;;;;;13.98;5.00;;;;;;;;;;5018470;28;95354;-74
2022/07/17 21:24:39;;;;;;;15.40;5.93;;;;;;;;;;5008288;28;97725;-74
2022/07/17 21:27:05;;;;;;;14.00;6.07;;;;;;;;;;5013912;28;96223;-74
2022/07/17 21:29:32;;;;;;;16.70;6.22;;;;;;;;;;5012818;28;97146;-73
2022/07/17 21:31:58;;;;;;;13.35;6.80;;;;;;;;;;4998667;28;97951;-74
2022/07/17 21:34:25;;;;;;;12.27;6.50;;;;;;;;;;5003895;28;95364;-74
2022/07/17 21:36:51;;;;;;;36.40;8.18;;;;;;;;;;4995717;28;97420;-74
2022/07/17 21:39:17;;;;;;;14.23;6.75;;;;;;;;;;5006277;28;98056;-73
2022/07/17 21:41:44;;;;;;;15.45;6.45;;;;;;;;;;5006206;28;96158;-74
2022/07/17 21:46:56;;;;;;;13.20;5.63;;;;;;;;;;5010947;28;95238;-74
2022/07/17 21:49:22;;;;;;;10.18;5.47;;;;;;;;;;5005435;28;97253;-74
2022/07/17 21:51:48;;;;;;;12.68;5.45;;;;;;;;;;4994773;28;97329;-73
2022/07/17 21:54:15;;;;;;;12.25;5.65;;;;;;;;;;4996008;28;95873;-73
2022/07/17 21:56:41;;;;;;;10.80;5.40;;;;;;;;;;4994376;28;96262;-74
2022/07/17 22:01:53;;;;;;;12.20;5.75;;;;;;;;;;4998369;28;95304;-74
2022/07/17 22:04:20;;;;;;;13.35;5.40;;;;;;;;;;4999283;28;97344;-74
2022/07/17 22:06:46;;;;;;;12.07;5.57;;;;;;;;;;5013915;28;95296;-73
2022/07/17 22:09:13;;;;;;;10.82;5.45;;;;;;;;;;4997543;28;96840;-73
2022/07/17 22:11:39;;;;;;;23.08;5.25;;;;;;;;;;5002275;28;97988;-73
2022/07/17 22:14:06;;;;;;;13.15;5.45;;;;;;;;;;5004941;28;95237;-73
2022/07/17 22:16:33;;;;;;;12.90;5.28;;;;;;;;;;4999220;28;97336;-73
2022/07/17 22:19:00;;;;;;;11.82;5.68;;;;;;;;;;5002565;28;97883;-73
2022/07/17 22:21:27;;;;;;;10.80;5.55;;;;;;;;;;5001361;28;95546;-73
2022/07/17 22:23:54;;;;;;;7.82;5.10;;;;;;;;;;5000181;28;97684;-73
2022/07/17 22:26:22;;;;;;;11.15;5.18;;;;;;;;;;5001969;28;97737;-73
2022/07/17 22:28:49;;;;;;;9.55;5.78;;;;;;;;;;4994115;28;96402;-73
2022/07/17 22:31:16;;;;;;;12.13;6.05;;;;;;;;;;5006798;28;97917;-73
2022/07/17 22:33:42;;;;;;;12.38;5.55;;;;;;;;;;5000219;28;95392;-73
2022/07/17 22:36:09;;;;;;;11.63;5.80;;;;;;;;;;5011586;28;97212;-73
2022/07/17 22:38:36;;;;;;;11.38;6.13;;;;;;;;;;5012685;28;97475;-73
2022/07/17 22:41:02;;;;;;;12.38;6.13;;;;;;;;;;5000072;28;95214;-73
2022/07/17 22:43:29;;;;;;;8.40;5.05;;;;;;;;;;4996457;28;97627;-73
2022/07/17 22:45:55;;;;;;;14.52;6.22;;;;;;;;;;5010682;28;97769;-73
2022/07/17 22:48:23;;;;;;;13.32;6.60;;;;;;;;;;4995592;28;95418;-74
2022/07/17 22:50:49;;;;;;;12.48;6.35;;;;;;;;;;4993117;28;97902;-73
2022/07/17 22:53:16;;;;;;;15.57;6.18;;;;;;;;;;4993526;28;95511;-73
2022/07/17 22:55:43;;;;;;;11.75;5.68;;;;;;;;;;4994772;28;97267;-73
2022/07/17 22:58:09;;;;;;;11.65;5.32;;;;;;;;;;5013443;28;97649;-74
2022/07/17 23:00:36;;;;;;;10.00;5.63;;;;;;;;;;5010385;28;95400;-73
2022/07/17 23:03:02;;;;;;;10.57;5.85;;;;;;;;;;4993459;28;97307;-73
2022/07/17 23:05:29;;;;;;;11.07;5.53;;;;;;;;;;4992291;28;97361;-73
2022/07/17 23:07:56;;;;;;;11.05;5.30;;;;;;;;;;5011120;28;95698;-74
2022/07/17 23:10:22;;;;;;;13.35;5.75;;;;;;;;;;5008492;28;96077;-74
2022/07/17 23:12:49;;;;;;;11.30;5.80;;;;;;;;;;4993636;28;95405;-73
2022/07/17 23:15:15;;;;;;;10.27;5.95;;;;;;;;;;4993243;28;97409;-74
2022/07/17 23:17:42;;;;;;;9.60;5.78;;;;;;;;;;5008287;28;96775;-74
2022/07/17 23:20:08;;;;;;;15.05;5.72;;;;;;;;;;4996163;28;96310;-73
2022/07/17 23:22:35;;;;;;;15.95;6.30;;;;;;;;;;5004031;28;97233;-73
2022/07/17 23:25:02;;;;;;;15.20;5.93;;;;;;;;;;5010738;28;97837;-74
2022/07/17 23:27:28;;;;;;;19.25;6.20;;;;;;;;;;5011653;28;95721;-73
2022/07/17 23:29:55;;;;;;;12.35;6.07;;;;;;;;;;5005080;28;97237;-74
2022/07/17 23:32:24;;;;;;;12.68;6.40;;;;;;;;;;4994552;28;97592;-73
2022/07/17 23:35:02;;;;;;;13.02;6.82;;;;;;;;;;4994352;28;97347;-73
2022/07/17 23:37:29;;;;;;;15.30;6.13;;;;;;;;;;5004226;28;97595;-74
2022/07/17 23:39:56;;;;;;;18.67;6.18;;;;;;;;;;4996060;28;95733;-74
2022/07/17 23:42:23;;;;;;;19.75;6.72;;;;;;;;;;5007782;28;97155;-74
2022/07/17 23:44:50;;;;;;;12.93;6.40;;;;;;;;;;4992444;28;97974;-74
2022/07/17 23:47:16;;;;;;;13.95;6.30;;;;;;;;;;5009148;28;95475;-74
2022/07/17 23:49:43;;;;;;;13.52;6.28;;;;;;;;;;4999720;28;96831;-74
2022/07/17 23:52:10;;;;;;;12.88;5.90;;;;;;;;;;4992247;28;98035;-74
2022/07/17 23:54:36;;;;;;;11.73;5.80;;;;;;;;;;4997114;28;95572;-74
2022/07/17 23:57:03;;;;;;;11.05;5.45;;;;;;;;;;5001608;28;97773;-74
2022/07/17 23:59:30;;;;;;;10.27;5.65;;;;;;;;;;4999255;28;95202;-75
